Kitakyushu Airport Kitakyushu JP
ICAO: RJFR
IATA: KKJ
Category: Medium
Scheduled Services: Yes

Elevation: 21 ft
TransAlt. 0 ft.

Airport Communications:
RDO:118.85

RJFR Zoom In..

If you have problems with the map follow the link
https://www.worldairports.se/pages/airport.php?
ICAO=RJFR

Runways:

(A) RW 18 length 8202 ft width 197 ft
ILS 109.15 / hdg 177

(B) RW 36 length 8202 ft width 197 ft
---- / hdg 357

Location; RJFR
Day. 22 / Time. 12.00 Zulu
* QNH: 1019
* Temperature: 19° c. 66.2°f.
* Wind from: 150° Speed 06 kn.
Dewpoint: 14° c.
Visibility: 10 km or more.
Clouds: Few 3000 ft.
Clouds: Scattered 15000 ft.
Clouds: Broken /00 ft.

RJFR 221200Z 15006KT 9999 FEW030 SCT150 BKN/// 19/14 Q1019


Wind From 150°
Speed 06 kn.

 
 
jpsmedia.com for Web Design worldairports.se 2018   terms of use